createdAt,value
2018-03-14T00:00:13.355Z,0
2018-03-14T00:00:53.856Z,0
2018-03-14T00:01:34.350Z,0
2018-03-14T00:02:14.857Z,0
2018-03-14T00:02:55.371Z,0
2018-03-14T00:03:35.861Z,0
2018-03-14T00:04:16.394Z,0
2018-03-14T00:04:56.898Z,0
2018-03-14T00:05:37.413Z,0
2018-03-14T00:06:17.920Z,0
2018-03-14T00:06:58.434Z,0
2018-03-14T00:07:38.939Z,0
2018-03-14T00:08:19.442Z,0
2018-03-14T00:08:59.952Z,0
2018-03-14T00:09:40.475Z,0
2018-03-14T00:10:20.993Z,0
2018-03-14T00:11:01.504Z,0
2018-03-14T00:11:42.016Z,0
2018-03-14T00:12:22.549Z,0
2018-03-14T00:13:03.088Z,0
2018-03-14T00:13:43.578Z,0
2018-03-14T00:14:24.084Z,0
2018-03-14T00:15:04.591Z,0
2018-03-14T00:15:45.096Z,0
2018-03-14T00:16:25.596Z,0
2018-03-14T00:17:06.116Z,0
2018-03-14T00:17:46.621Z,0
2018-03-14T00:18:27.130Z,0
2018-03-14T00:19:07.635Z,0
2018-03-14T00:19:48.178Z,0
2018-03-14T00:20:28.695Z,0
2018-03-14T00:21:09.205Z,0
2018-03-14T00:21:49.736Z,0
2018-03-14T00:22:30.226Z,0
2018-03-14T00:23:10.741Z,0
2018-03-14T00:23:51.214Z,0
2018-03-14T00:24:31.703Z,0
2018-03-14T00:25:12.209Z,0
2018-03-14T00:25:52.715Z,0
2018-03-14T00:26:33.228Z,0
2018-03-14T00:27:13.747Z,0
2018-03-14T00:27:54.249Z,0
2018-03-14T00:28:34.755Z,0
2018-03-14T00:29:15.320Z,0
2018-03-14T00:29:55.803Z,0
2018-03-14T00:30:36.332Z,0
2018-03-14T00:31:16.843Z,0
2018-03-14T00:31:57.352Z,0
2018-03-14T00:32:37.856Z,0
2018-03-14T00:33:18.366Z,0
2018-03-14T00:33:58.889Z,0
2018-03-14T00:34:39.416Z,0
2018-03-14T00:35:19.932Z,0
2018-03-14T00:36:00.447Z,0
2018-03-14T00:36:40.957Z,0
2018-03-14T00:37:21.449Z,0
2018-03-14T00:38:01.962Z,0
2018-03-14T00:38:42.462Z,0
2018-03-14T00:39:22.979Z,0
2018-03-14T00:40:03.498Z,0
2018-03-14T00:40:44.018Z,0
2018-03-14T00:41:24.533Z,0
2018-03-14T00:42:05.053Z,0
2018-03-14T00:42:45.564Z,0
2018-03-14T00:43:26.071Z,0
2018-03-14T00:44:06.590Z,0
2018-03-14T00:44:47.104Z,0
2018-03-14T00:45:27.624Z,0
2018-03-14T00:46:08.139Z,0
2018-03-14T00:46:48.654Z,0
2018-03-14T00:47:29.165Z,0
2018-03-14T00:48:09.694Z,0
2018-03-14T00:48:50.196Z,0
2018-03-14T00:49:30.709Z,0
2018-03-14T00:50:11.222Z,0
2018-03-14T00:50:51.736Z,0
2018-03-14T00:51:32.264Z,0
2018-03-14T00:52:12.762Z,0
2018-03-14T00:52:53.277Z,0
2018-03-14T00:53:33.812Z,0
2018-03-14T00:54:14.314Z,0
2018-03-14T00:54:54.825Z,0
2018-03-14T00:55:36.190Z,0
2018-03-14T00:56:15.865Z,0
2018-03-14T00:56:56.384Z,0
2018-03-14T00:57:36.900Z,0
2018-03-14T00:58:17.408Z,0
2018-03-14T00:58:57.912Z,0
2018-03-14T00:59:38.424Z,0
2018-03-14T01:00:18.940Z,0
2018-03-14T01:00:59.452Z,0
2018-03-14T01:01:39.962Z,0
2018-03-14T01:02:20.482Z,0
2018-03-14T01:03:00.990Z,0
2018-03-14T01:03:41.502Z,0
2018-03-14T01:04:22.026Z,0
2018-03-14T01:05:02.586Z,0
2018-03-14T01:05:43.092Z,0
2018-03-14T01:06:23.611Z,0
2018-03-14T01:07:04.128Z,0
2018-03-14T01:07:44.642Z,0
2018-03-14T01:08:25.137Z,0
2018-03-14T01:09:05.645Z,0
2018-03-14T01:09:46.174Z,0
2018-03-14T01:10:26.670Z,0
2018-03-14T01:11:07.174Z,0
2018-03-14T01:11:47.689Z,0
2018-03-14T01:12:28.187Z,0
2018-03-14T01:13:08.696Z,0
2018-03-14T01:13:49.211Z,0
2018-03-14T01:14:29.704Z,0
2018-03-14T01:15:10.195Z,0
2018-03-14T01:15:50.706Z,0
2018-03-14T01:16:31.230Z,0
2018-03-14T01:17:11.762Z,0
2018-03-14T01:17:52.263Z,0
2018-03-14T01:18:32.778Z,0
2018-03-14T01:19:13.264Z,0
2018-03-14T01:19:53.756Z,0
2018-03-14T01:20:34.272Z,0
2018-03-14T01:21:14.786Z,0
2018-03-14T01:21:55.288Z,0
2018-03-14T01:22:35.781Z,0
2018-03-14T01:23:16.278Z,0
2018-03-14T01:23:56.816Z,0
2018-03-14T01:24:37.306Z,0
2018-03-14T01:25:17.798Z,0
2018-03-14T01:25:58.305Z,0
2018-03-14T01:26:38.817Z,0
2018-03-14T01:27:19.306Z,0
2018-03-14T01:27:59.823Z,0
2018-03-14T01:28:40.319Z,0
2018-03-14T01:29:20.834Z,0
2018-03-14T01:30:01.322Z,0
2018-03-14T01:30:41.799Z,0
2018-03-14T01:31:22.284Z,0
2018-03-14T01:32:02.791Z,0
2018-03-14T01:32:43.292Z,0
2018-03-14T01:33:23.772Z,0
2018-03-14T01:34:04.294Z,0
2018-03-14T01:34:44.768Z,0
2018-03-14T01:35:25.277Z,0
2018-03-14T01:36:05.761Z,0
2018-03-14T01:36:46.261Z,0
2018-03-14T01:37:26.742Z,0
2018-03-14T01:38:07.275Z,0
2018-03-14T01:38:47.739Z,0
2018-03-14T01:39:28.242Z,0
2018-03-14T01:40:08.756Z,0
2018-03-14T01:40:49.252Z,0
2018-03-14T01:41:29.767Z,0
2018-03-14T01:42:10.284Z,0
2018-03-14T01:42:50.794Z,0
2018-03-14T01:43:31.285Z,0
2018-03-14T01:44:11.796Z,0
2018-03-14T01:44:52.301Z,0
2018-03-14T01:45:32.850Z,0
2018-03-14T01:46:13.385Z,0
2018-03-14T01:46:53.875Z,0
2018-03-14T01:47:34.409Z,0
2018-03-14T01:48:14.930Z,0
2018-03-14T01:48:55.427Z,0
2018-03-14T01:49:35.962Z,0
2018-03-14T01:50:16.470Z,0
2018-03-14T01:50:56.972Z,0
2018-03-14T01:51:37.482Z,0
2018-03-14T01:52:18.000Z,0
2018-03-14T01:52:58.514Z,0
2018-03-14T01:53:39.027Z,0
2018-03-14T01:54:19.542Z,0
2018-03-14T01:55:00.056Z,0
2018-03-14T01:55:40.583Z,0
2018-03-14T01:56:21.103Z,0
2018-03-14T01:57:01.623Z,0
2018-03-14T01:57:42.144Z,0
2018-03-14T01:58:22.638Z,0
2018-03-14T01:59:03.165Z,0
2018-03-14T01:59:43.673Z,0
2018-03-14T02:00:24.191Z,0
2018-03-14T02:01:04.715Z,0
2018-03-14T02:01:45.229Z,0
2018-03-14T02:02:25.752Z,0
2018-03-14T02:03:06.266Z,0
2018-03-14T02:03:46.780Z,0
2018-03-14T02:04:27.300Z,0
2018-03-14T02:05:07.816Z,0
2018-03-14T02:05:48.325Z,0
2018-03-14T02:06:28.844Z,0
2018-03-14T02:07:09.371Z,0
2018-03-14T02:07:49.887Z,0
2018-03-14T02:08:30.399Z,0
2018-03-14T02:09:10.920Z,0
2018-03-14T02:09:51.433Z,0
2018-03-14T02:10:31.941Z,0
2018-03-14T02:11:12.461Z,0
2018-03-14T02:11:52.973Z,0
2018-03-14T02:12:33.488Z,0
2018-03-14T02:13:13.987Z,0
2018-03-14T02:13:54.517Z,0
2018-03-14T02:14:35.037Z,0
2018-03-14T02:15:15.564Z,0
2018-03-14T02:15:56.073Z,0
2018-03-14T02:16:36.594Z,0
2018-03-14T02:17:17.108Z,0
2018-03-14T02:17:57.633Z,0
2018-03-14T02:18:38.148Z,0
2018-03-14T02:19:18.664Z,0
2018-03-14T02:19:59.170Z,0
2018-03-14T02:20:39.694Z,0
2018-03-14T02:21:20.204Z,0
2018-03-14T02:22:00.720Z,0
2018-03-14T02:22:41.270Z,0
2018-03-14T02:23:21.790Z,0
2018-03-14T02:24:02.317Z,0
2018-03-14T02:24:42.830Z,0
2018-03-14T02:25:23.352Z,0
2018-03-14T02:26:03.861Z,0
2018-03-14T02:26:44.374Z,0
2018-03-14T02:27:24.892Z,0
2018-03-14T02:28:05.409Z,0
2018-03-14T02:28:45.929Z,0
2018-03-14T02:29:26.454Z,0
2018-03-14T02:30:06.968Z,0
2018-03-14T02:30:47.487Z,0
2018-03-14T02:31:27.997Z,0
2018-03-14T02:32:08.520Z,0
2018-03-14T02:32:49.039Z,0
2018-03-14T02:33:29.551Z,0
2018-03-14T02:34:10.064Z,0
2018-03-14T02:34:50.568Z,0
2018-03-14T02:35:31.100Z,0
2018-03-14T02:36:11.613Z,0
2018-03-14T02:36:52.173Z,0
2018-03-14T02:37:32.665Z,0
2018-03-14T02:38:13.185Z,0
2018-03-14T02:38:53.700Z,0
2018-03-14T02:39:34.215Z,0
2018-03-14T02:40:14.728Z,0
2018-03-14T02:40:55.244Z,0
2018-03-14T02:41:35.754Z,0
2018-03-14T02:42:16.279Z,0
2018-03-14T02:42:56.791Z,0
2018-03-14T02:43:37.298Z,0
2018-03-14T02:44:17.806Z,0
2018-03-14T02:44:58.316Z,0
2018-03-14T02:45:38.834Z,0
2018-03-14T02:46:19.364Z,0
2018-03-14T02:46:59.877Z,0
2018-03-14T02:47:40.393Z,0
2018-03-14T02:48:20.935Z,0
2018-03-14T02:49:01.442Z,0
2018-03-14T02:49:41.954Z,0
2018-03-14T02:50:22.479Z,0
2018-03-14T02:51:02.985Z,0
2018-03-14T02:51:43.502Z,0
2018-03-14T02:52:24.024Z,0
2018-03-14T02:53:04.538Z,0
2018-03-14T02:53:45.079Z,0
2018-03-14T02:54:25.590Z,0
2018-03-14T02:55:06.104Z,0
2018-03-14T02:55:46.604Z,0
2018-03-14T02:56:27.116Z,0
2018-03-14T02:57:07.641Z,0
2018-03-14T02:57:48.155Z,0
2018-03-14T02:58:28.680Z,0
2018-03-14T02:59:09.190Z,0
2018-03-14T02:59:49.702Z,0
2018-03-14T03:00:30.219Z,0
2018-03-14T03:01:10.733Z,0
2018-03-14T03:01:51.240Z,0
2018-03-14T03:02:31.757Z,0
2018-03-14T03:03:12.301Z,0
2018-03-14T03:03:52.815Z,0
2018-03-14T03:04:33.322Z,0
2018-03-14T03:05:13.842Z,0
2018-03-14T03:05:54.356Z,0
2018-03-14T03:06:34.874Z,0
2018-03-14T03:07:15.393Z,0
2018-03-14T03:07:55.925Z,0
2018-03-14T03:08:36.442Z,0
2018-03-14T03:09:16.946Z,0
2018-03-14T03:09:57.469Z,0
2018-03-14T03:10:37.976Z,0
2018-03-14T03:11:18.499Z,0
2018-03-14T03:11:59.029Z,0
2018-03-14T03:12:39.532Z,0
2018-03-14T03:13:20.048Z,0
2018-03-14T03:14:00.567Z,0
2018-03-14T03:14:41.088Z,0
2018-03-14T03:15:21.655Z,0
2018-03-14T03:16:02.115Z,0
2018-03-14T03:16:42.635Z,0
2018-03-14T03:17:23.159Z,0
2018-03-14T03:18:03.680Z,0
2018-03-14T03:18:44.204Z,0
2018-03-14T03:19:24.712Z,0
2018-03-14T03:20:05.222Z,0
2018-03-14T03:20:45.733Z,0
2018-03-14T03:21:26.257Z,0
2018-03-14T03:22:06.776Z,0
2018-03-14T03:22:47.303Z,0
2018-03-14T03:23:27.807Z,0
2018-03-14T03:24:08.328Z,0
2018-03-14T03:24:48.838Z,0
2018-03-14T03:25:29.341Z,0
2018-03-14T03:26:09.848Z,0
2018-03-14T03:26:50.359Z,0
2018-03-14T03:27:30.846Z,0
2018-03-14T03:28:11.365Z,0
2018-03-14T03:28:51.870Z,0
2018-03-14T03:29:32.372Z,0
2018-03-14T03:30:12.953Z,0
2018-03-14T03:30:53.448Z,0
2018-03-14T03:31:33.964Z,0
2018-03-14T03:32:14.442Z,0
2018-03-14T03:32:54.940Z,0
2018-03-14T03:33:35.438Z,0
2018-03-14T03:34:15.954Z,0
2018-03-14T03:34:56.447Z,0
2018-03-14T03:35:36.986Z,0
2018-03-14T03:36:17.460Z,0
2018-03-14T03:36:57.981Z,0
2018-03-14T03:37:38.485Z,0
2018-03-14T03:38:18.996Z,0
2018-03-14T03:38:59.518Z,0
2018-03-14T03:39:40.025Z,0
2018-03-14T03:40:20.618Z,0
2018-03-14T03:41:01.135Z,0
2018-03-14T03:41:41.646Z,0
2018-03-14T03:42:22.161Z,0
2018-03-14T03:43:02.673Z,0
2018-03-14T03:43:43.173Z,0
2018-03-14T03:44:23.720Z,0
2018-03-14T03:45:04.194Z,0
2018-03-14T03:45:44.698Z,0
2018-03-14T03:46:25.195Z,0
2018-03-14T03:47:05.706Z,0
2018-03-14T03:47:46.220Z,0
2018-03-14T03:48:26.728Z,0
2018-03-14T03:49:07.242Z,0
2018-03-14T03:49:47.746Z,0
2018-03-14T03:50:28.249Z,0
2018-03-14T03:51:08.764Z,0
2018-03-14T03:51:49.276Z,0
2018-03-14T03:52:29.798Z,0
2018-03-14T03:53:10.301Z,0
2018-03-14T03:53:50.811Z,0
2018-03-14T03:54:31.340Z,0
2018-03-14T03:55:11.844Z,0
2018-03-14T03:55:52.332Z,0
2018-03-14T03:56:32.828Z,0
2018-03-14T03:57:13.345Z,0
2018-03-14T03:57:53.865Z,0
2018-03-14T03:58:34.354Z,0
2018-03-14T03:59:14.905Z,0
2018-03-14T03:59:55.414Z,0
2018-03-14T04:00:35.926Z,0
2018-03-14T04:01:16.434Z,0
2018-03-14T04:01:56.941Z,0
2018-03-14T04:02:37.452Z,0
2018-03-14T04:03:17.949Z,0
2018-03-14T04:03:58.492Z,0
2018-03-14T04:04:38.984Z,0
2018-03-14T04:05:19.499Z,0
2018-03-14T04:06:00.007Z,0
2018-03-14T04:06:40.516Z,0
2018-03-14T04:07:21.040Z,0
2018-03-14T04:08:01.537Z,0
2018-03-14T04:08:42.054Z,0
2018-03-14T04:09:22.576Z,0
2018-03-14T04:10:03.061Z,0
2018-03-14T04:10:43.584Z,0
2018-03-14T04:11:24.075Z,0
2018-03-14T04:12:04.576Z,0
2018-03-14T04:12:45.085Z,0
2018-03-14T04:13:25.590Z,0
2018-03-14T04:14:06.089Z,0
2018-03-14T04:14:46.596Z,0
2018-03-14T04:15:27.111Z,0
2018-03-14T04:16:07.605Z,0
2018-03-14T04:16:48.108Z,0
2018-03-14T04:17:28.604Z,0
2018-03-14T04:18:09.103Z,0
2018-03-14T04:18:49.615Z,0
2018-03-14T04:19:30.130Z,0
2018-03-14T04:20:10.643Z,0
2018-03-14T04:20:51.164Z,0
2018-03-14T04:21:31.679Z,0
2018-03-14T04:22:12.171Z,0
2018-03-14T04:22:52.682Z,0
2018-03-14T04:23:33.179Z,0
2018-03-14T04:24:13.705Z,0
2018-03-14T04:24:54.202Z,0
2018-03-14T04:25:34.711Z,0
2018-03-14T04:26:15.223Z,0
2018-03-14T04:26:55.742Z,0
2018-03-14T04:27:36.254Z,0
2018-03-14T04:28:16.763Z,0
2018-03-14T04:28:57.269Z,0
2018-03-14T04:29:37.774Z,0
2018-03-14T04:30:18.283Z,0
2018-03-14T04:30:58.792Z,0
2018-03-14T04:31:39.305Z,0
2018-03-14T04:32:19.803Z,0
2018-03-14T04:33:00.313Z,0
2018-03-14T04:33:40.822Z,0
2018-03-14T04:34:21.322Z,0
2018-03-14T04:35:01.828Z,0
2018-03-14T04:35:42.329Z,0
2018-03-14T04:36:22.845Z,0
2018-03-14T04:37:03.367Z,0
2018-03-14T04:37:43.880Z,0
2018-03-14T04:38:24.388Z,0
2018-03-14T04:39:04.896Z,0
2018-03-14T04:39:45.410Z,0
2018-03-14T04:40:25.927Z,0
2018-03-14T04:41:06.435Z,0
2018-03-14T04:41:46.956Z,0
2018-03-14T04:42:27.480Z,0
2018-03-14T04:43:07.979Z,0
2018-03-14T04:43:48.504Z,0
2018-03-14T04:44:29.015Z,0
2018-03-14T04:45:09.518Z,0
2018-03-14T04:45:50.076Z,0
2018-03-14T04:46:30.557Z,0
2018-03-14T04:47:11.072Z,0
2018-03-14T04:47:51.603Z,0
2018-03-14T04:48:32.116Z,0
2018-03-14T04:49:12.627Z,0
2018-03-14T04:49:53.144Z,0
2018-03-14T04:50:33.649Z,0
2018-03-14T04:51:14.175Z,0
2018-03-14T04:51:54.692Z,0
2018-03-14T04:52:35.203Z,0
2018-03-14T04:53:15.721Z,0
2018-03-14T04:53:56.236Z,0
2018-03-14T04:54:36.747Z,0
2018-03-14T04:55:17.259Z,0
2018-03-14T04:55:57.769Z,0
2018-03-14T04:56:38.275Z,0
2018-03-14T04:57:18.791Z,0
2018-03-14T04:57:59.299Z,0
2018-03-14T04:58:39.818Z,0
2018-03-14T04:59:20.328Z,0
2018-03-14T05:00:00.838Z,0
2018-03-14T05:00:41.353Z,0
2018-03-14T05:01:21.867Z,0
2018-03-14T05:02:02.399Z,0
2018-03-14T05:02:42.927Z,0
2018-03-14T05:03:23.440Z,0
2018-03-14T05:04:03.964Z,0
2018-03-14T05:04:44.467Z,0
2018-03-14T05:05:24.980Z,0
2018-03-14T05:06:05.504Z,0
2018-03-14T05:06:46.014Z,0
2018-03-14T05:07:26.559Z,0
2018-03-14T05:08:07.045Z,0
2018-03-14T05:08:47.566Z,0
2018-03-14T05:09:28.084Z,0
2018-03-14T05:10:08.603Z,0
2018-03-14T05:10:49.130Z,0
2018-03-14T05:11:29.656Z,0
2018-03-14T05:12:10.153Z,0
2018-03-14T05:12:50.667Z,0
2018-03-14T05:13:31.179Z,0
2018-03-14T05:14:11.744Z,0
2018-03-14T05:14:52.218Z,0
2018-03-14T05:15:32.717Z,0
2018-03-14T05:16:13.228Z,0
2018-03-14T05:16:53.752Z,0
2018-03-14T05:17:34.268Z,0
2018-03-14T05:18:14.782Z,0
2018-03-14T05:18:55.299Z,0
2018-03-14T05:19:35.805Z,0
2018-03-14T05:20:16.307Z,0
2018-03-14T05:20:56.821Z,0
2018-03-14T05:21:37.331Z,0
2018-03-14T05:22:17.846Z,0
2018-03-14T05:22:58.360Z,0
2018-03-14T05:23:38.883Z,0
2018-03-14T05:24:19.399Z,0
2018-03-14T05:24:59.913Z,0
2018-03-14T05:25:40.425Z,0
2018-03-14T05:26:20.942Z,0
2018-03-14T05:27:01.466Z,0
2018-03-14T05:27:41.977Z,0
2018-03-14T05:28:22.482Z,0
2018-03-14T05:29:03.008Z,0
2018-03-14T05:29:43.522Z,0
2018-03-14T05:30:24.041Z,0
2018-03-14T05:31:04.544Z,0
2018-03-14T05:31:45.067Z,0
2018-03-14T05:32:25.636Z,0
2018-03-14T05:33:06.150Z,0
2018-03-14T05:33:46.657Z,0
2018-03-14T05:34:27.177Z,0
2018-03-14T05:35:07.699Z,0
2018-03-14T05:35:48.219Z,0
2018-03-14T05:38:22.561Z,0
2018-03-14T05:39:03.079Z,0
2018-03-14T05:39:43.588Z,0
2018-03-14T05:40:24.106Z,0
2018-03-14T05:41:04.626Z,0
2018-03-14T05:41:45.133Z,0
2018-03-14T05:42:25.676Z,0
2018-03-14T05:43:06.189Z,0
2018-03-14T05:43:46.691Z,0
2018-03-14T05:44:27.212Z,0
2018-03-14T05:45:07.729Z,0
2018-03-14T05:45:48.238Z,0
2018-03-14T05:46:28.760Z,0
2018-03-14T05:47:09.288Z,0
2018-03-14T05:47:49.827Z,0
2018-03-14T05:48:30.336Z,0
2018-03-14T05:49:10.843Z,0
2018-03-14T05:49:51.365Z,0
2018-03-14T05:50:31.884Z,0
2018-03-14T05:51:12.392Z,0
2018-03-14T05:51:52.907Z,0
2018-03-14T05:52:33.413Z,0
2018-03-14T05:53:13.929Z,0
2018-03-14T05:53:54.442Z,0
2018-03-14T05:54:34.968Z,5
2018-03-14T05:55:15.486Z,5
2018-03-14T05:55:56.013Z,5
2018-03-14T05:56:36.522Z,5
2018-03-14T05:57:17.017Z,5
2018-03-14T05:57:57.532Z,5
2018-03-14T05:58:38.069Z,5
2018-03-14T05:59:18.596Z,5
2018-03-14T05:59:59.103Z,5
2018-03-14T06:00:39.622Z,5
2018-03-14T06:01:20.146Z,5
2018-03-14T06:02:00.660Z,5
2018-03-14T06:02:41.185Z,5
2018-03-14T06:03:21.748Z,5
2018-03-14T06:04:02.540Z,5
2018-03-14T06:04:43.003Z,5
2018-03-14T06:05:23.582Z,5
2018-03-14T06:06:04.029Z,5
2018-03-14T06:06:44.538Z,10
2018-03-14T06:07:25.047Z,10
2018-03-14T06:08:05.576Z,10
2018-03-14T06:08:46.103Z,10
2018-03-14T06:09:26.611Z,10
2018-03-14T06:10:07.117Z,10
2018-03-14T06:10:47.625Z,15
2018-03-14T06:11:28.132Z,15
2018-03-14T06:12:08.636Z,15
2018-03-14T06:12:49.137Z,15
2018-03-14T06:13:29.647Z,15
2018-03-14T06:14:10.156Z,15
2018-03-14T06:14:50.794Z,15
2018-03-14T06:15:31.316Z,20
2018-03-14T06:16:11.782Z,20
2018-03-14T06:16:52.290Z,20
2018-03-14T06:17:32.803Z,20
2018-03-14T06:18:13.304Z,20
2018-03-14T06:18:53.811Z,20
2018-03-14T06:19:34.340Z,20
2018-03-14T06:20:14.857Z,20
2018-03-14T06:20:55.322Z,20
2018-03-14T06:21:35.824Z,20
2018-03-14T06:22:16.349Z,20
2018-03-14T06:22:56.860Z,20
2018-03-14T06:23:37.380Z,20
2018-03-14T06:24:17.901Z,20
2018-03-14T06:24:58.420Z,20
2018-03-14T06:25:38.947Z,20
2018-03-14T06:26:19.469Z,20
2018-03-14T06:26:59.964Z,25
2018-03-14T06:27:40.472Z,25
2018-03-14T06:28:21.008Z,25
2018-03-14T06:29:01.522Z,25
2018-03-14T06:29:42.038Z,25
2018-03-14T06:30:22.574Z,25
2018-03-14T06:31:03.084Z,25
2018-03-14T06:31:43.632Z,25
2018-03-14T06:32:24.145Z,25
2018-03-14T06:33:04.631Z,25
2018-03-14T06:33:45.131Z,25
2018-03-14T06:34:25.678Z,25
2018-03-14T06:35:06.118Z,25
2018-03-14T06:35:46.628Z,25
2018-03-14T06:36:27.133Z,25
2018-03-14T06:37:07.639Z,25
2018-03-14T06:37:48.148Z,25
2018-03-14T06:38:28.679Z,25
2018-03-14T06:39:09.202Z,25
2018-03-14T06:39:49.717Z,25
2018-03-14T06:40:30.218Z,25
2018-03-14T06:41:10.728Z,25
2018-03-14T06:41:51.212Z,25
2018-03-14T06:42:31.739Z,25
2018-03-14T06:43:12.275Z,25
2018-03-14T06:43:52.726Z,25
2018-03-14T06:44:33.240Z,25
2018-03-14T06:45:13.766Z,30
2018-03-14T06:45:54.270Z,30
2018-03-14T06:46:34.792Z,30
2018-03-14T06:47:15.280Z,30
2018-03-14T06:47:55.783Z,30
2018-03-14T06:48:36.316Z,35
2018-03-14T06:49:16.799Z,35
2018-03-14T06:49:57.312Z,35
2018-03-14T06:50:37.843Z,35
2018-03-14T06:51:18.331Z,35
2018-03-14T06:51:58.857Z,35
2018-03-14T06:52:39.341Z,40
2018-03-14T06:53:19.862Z,40
2018-03-14T06:54:00.372Z,40
2018-03-14T06:54:40.903Z,40
2018-03-14T06:55:21.367Z,40
2018-03-14T06:56:01.903Z,45
2018-03-14T06:56:42.362Z,45
2018-03-14T06:57:22.858Z,45
2018-03-14T06:58:03.408Z,45
2018-03-14T06:58:43.868Z,45
2018-03-14T06:59:24.367Z,45
2018-03-14T07:00:04.872Z,45
2018-03-14T07:00:45.371Z,45
2018-03-14T07:01:25.848Z,50
2018-03-14T07:02:06.382Z,50
2018-03-14T07:02:46.823Z,50
2018-03-14T07:03:27.320Z,50
2018-03-14T07:04:07.819Z,45
2018-03-14T07:04:48.376Z,45
2018-03-14T07:05:28.845Z,45
2018-03-14T07:06:09.346Z,45
2018-03-14T07:06:49.832Z,45
2018-03-14T07:07:30.332Z,45
2018-03-14T07:08:10.841Z,45
2018-03-14T07:08:51.359Z,45
2018-03-14T07:09:31.877Z,45
2018-03-14T07:10:12.368Z,45
2018-03-14T07:10:52.886Z,45
2018-03-14T07:11:33.379Z,45
2018-03-14T07:12:13.870Z,40
2018-03-14T07:12:54.380Z,45
2018-03-14T07:13:34.898Z,45
2018-03-14T07:14:15.426Z,45
2018-03-14T07:14:55.937Z,45
2018-03-14T07:15:36.450Z,45
2018-03-14T07:16:16.974Z,45
2018-03-14T07:16:57.485Z,45
2018-03-14T07:17:38.040Z,45
2018-03-14T07:18:18.541Z,45
2018-03-14T07:18:59.034Z,50
2018-03-14T07:19:39.530Z,50
2018-03-14T07:20:20.025Z,50
2018-03-14T07:21:00.538Z,50
2018-03-14T07:21:41.049Z,50
2018-03-14T07:22:21.507Z,50
2018-03-14T07:23:02.107Z,50
2018-03-14T07:23:42.604Z,50
2018-03-14T07:24:23.155Z,50
2018-03-14T07:25:03.622Z,50
2018-03-14T07:25:44.113Z,50
2018-03-14T07:26:24.624Z,55
2018-03-14T07:27:05.143Z,55
2018-03-14T07:27:45.653Z,55
2018-03-14T07:28:26.159Z,55
2018-03-14T07:29:06.686Z,55
2018-03-14T07:29:47.200Z,55
2018-03-14T07:30:27.719Z,55
2018-03-14T07:31:08.225Z,55
2018-03-14T07:31:48.714Z,55
2018-03-14T07:32:29.229Z,55
2018-03-14T07:33:09.692Z,55
2018-03-14T07:33:50.199Z,55
2018-03-14T07:34:30.710Z,55
2018-03-14T07:35:11.235Z,55
2018-03-14T07:35:51.738Z,55
2018-03-14T07:36:32.215Z,55
2018-03-14T07:37:12.731Z,55
2018-03-14T07:37:53.254Z,55
2018-03-14T07:38:33.710Z,60
2018-03-14T07:39:14.228Z,60
2018-03-14T07:39:54.719Z,60
2018-03-14T07:40:35.212Z,60
2018-03-14T07:41:15.728Z,65
2018-03-14T07:41:56.292Z,65
2018-03-14T07:42:36.789Z,65
2018-03-14T07:43:17.264Z,65
2018-03-14T07:43:57.751Z,65
2018-03-14T07:44:38.279Z,70
2018-03-14T07:45:18.748Z,70
2018-03-14T07:45:59.306Z,70
2018-03-14T07:46:39.791Z,70
2018-03-14T07:47:20.571Z,70
2018-03-14T07:48:01.064Z,70
2018-03-14T07:48:41.577Z,70
2018-03-14T07:49:22.068Z,70
2018-03-14T07:50:02.565Z,70
2018-03-14T07:50:43.104Z,70
2018-03-14T07:51:23.597Z,75
2018-03-14T07:52:04.116Z,75
2018-03-14T07:52:44.626Z,75
2018-03-14T07:53:25.134Z,75
2018-03-14T07:54:05.630Z,75
2018-03-14T07:54:46.137Z,75
2018-03-14T07:55:26.644Z,75
2018-03-14T07:56:07.463Z,75
2018-03-14T07:56:48.021Z,80
2018-03-14T07:57:28.491Z,80
2018-03-14T07:58:08.988Z,80
2018-03-14T07:58:49.499Z,80
2018-03-14T07:59:30.018Z,85
2018-03-14T08:00:10.505Z,85
2018-03-14T08:00:51.012Z,85
2018-03-14T08:01:31.541Z,85
2018-03-14T08:02:11.992Z,90
2018-03-14T08:02:52.595Z,90
2018-03-14T08:03:33.069Z,95
2018-03-14T08:04:13.574Z,100
2018-03-14T08:04:54.107Z,105
2018-03-14T08:05:34.569Z,110
2018-03-14T08:06:15.061Z,110
2018-03-14T08:06:55.532Z,115
2018-03-14T08:07:36.011Z,120
2018-03-14T08:08:16.511Z,125
2018-03-14T08:08:57.005Z,130
2018-03-14T08:09:37.506Z,125
2018-03-14T08:10:18.020Z,125
2018-03-14T08:10:58.532Z,130
2018-03-14T08:11:39.036Z,135
2018-03-14T08:12:19.551Z,140
2018-03-14T08:13:00.072Z,145
2018-03-14T08:13:40.817Z,150
2018-03-14T08:14:21.089Z,155
2018-03-14T08:15:01.614Z,160
2018-03-14T08:15:42.093Z,165
2018-03-14T08:16:22.609Z,165
2018-03-14T08:17:03.132Z,165
2018-03-14T08:17:43.635Z,165
2018-03-14T08:18:24.127Z,165
2018-03-14T08:19:04.667Z,165
2018-03-14T08:19:45.175Z,165
2018-03-14T08:20:25.728Z,165
2018-03-14T08:21:06.268Z,165
2018-03-14T08:21:46.734Z,165
2018-03-14T08:22:27.231Z,165
2018-03-14T08:23:07.736Z,165
2018-03-14T08:23:48.229Z,165
2018-03-14T08:24:28.761Z,160
2018-03-14T08:25:09.227Z,160
2018-03-14T08:25:49.737Z,160
2018-03-14T08:26:30.247Z,160
2018-03-14T08:27:10.742Z,160
2018-03-14T08:27:51.257Z,165
2018-03-14T08:28:31.749Z,165
2018-03-14T08:29:12.261Z,175
2018-03-14T08:29:52.798Z,180
2018-03-14T08:30:33.310Z,180
2018-03-14T08:31:13.781Z,180
2018-03-14T08:31:54.267Z,185
2018-03-14T08:32:34.771Z,180
2018-03-14T08:33:15.281Z,180
2018-03-14T08:33:55.810Z,180
2018-03-14T08:34:36.312Z,175
2018-03-14T08:35:16.810Z,185
2018-03-14T08:35:57.319Z,180
2018-03-14T08:36:37.829Z,180
2018-03-14T08:37:18.334Z,175
2018-03-14T08:37:58.857Z,175
2018-03-14T08:38:39.379Z,175
2018-03-14T08:39:19.876Z,170
2018-03-14T08:40:00.386Z,170
2018-03-14T08:40:40.881Z,170
2018-03-14T08:41:21.383Z,165
2018-03-14T08:42:01.898Z,165
2018-03-14T08:42:42.382Z,160
2018-03-14T08:43:22.886Z,155
2018-03-14T08:44:03.377Z,150
2018-03-14T08:44:43.911Z,150
2018-03-14T08:45:24.407Z,155
2018-03-14T08:46:04.903Z,150
2018-03-14T08:46:45.398Z,145
2018-03-14T08:47:25.933Z,145
2018-03-14T08:48:06.424Z,140
2018-03-14T08:48:46.923Z,135
2018-03-14T08:49:27.401Z,135
2018-03-14T08:50:07.904Z,135
2018-03-14T08:50:48.401Z,135
2018-03-14T08:51:28.919Z,135
2018-03-14T08:52:09.460Z,135
2018-03-14T08:52:49.933Z,135
2018-03-14T08:53:30.446Z,135
2018-03-14T08:54:10.950Z,130
2018-03-14T08:54:51.466Z,125
2018-03-14T08:55:31.977Z,130
2018-03-14T08:56:12.494Z,130
2018-03-14T08:56:53.022Z,125
2018-03-14T08:57:33.530Z,120
2018-03-14T08:58:14.107Z,115
2018-03-14T08:58:54.596Z,110
2018-03-14T09:01:07.870Z,100
2018-03-14T09:01:48.385Z,95
2018-03-14T09:02:28.896Z,95
2018-03-14T09:03:09.411Z,95
2018-03-14T09:03:49.905Z,95
2018-03-14T09:04:30.444Z,95
2018-03-14T09:05:10.957Z,95
2018-03-14T09:05:51.477Z,95
2018-03-14T09:06:32.011Z,95
2018-03-14T09:07:12.531Z,95
2018-03-14T09:07:53.047Z,95
2018-03-14T09:08:33.542Z,95
2018-03-14T09:09:14.073Z,95
2018-03-14T09:09:54.604Z,95
2018-03-14T09:10:35.134Z,95
2018-03-14T09:11:15.647Z,95
2018-03-14T09:11:56.157Z,95
2018-03-14T09:12:36.653Z,95
2018-03-14T09:13:17.178Z,95
2018-03-14T09:13:57.677Z,95
2018-03-14T09:14:38.215Z,95
2018-03-14T09:15:18.715Z,95
2018-03-14T09:15:59.222Z,95
2018-03-14T09:16:39.742Z,95
2018-03-14T09:17:20.244Z,95
2018-03-14T09:18:00.746Z,95
2018-03-14T09:18:41.273Z,95
2018-03-14T09:19:21.871Z,95
2018-03-14T09:20:02.325Z,95
2018-03-14T09:20:42.807Z,95
2018-03-14T09:21:23.373Z,95
2018-03-14T09:22:03.825Z,95
2018-03-14T09:22:44.310Z,95
2018-03-14T09:23:24.812Z,95
2018-03-14T09:24:05.300Z,95
2018-03-14T09:24:45.815Z,95
2018-03-14T09:25:26.311Z,100
2018-03-14T09:26:06.833Z,100
2018-03-14T09:26:47.356Z,100
2018-03-14T09:27:27.877Z,100
2018-03-14T09:28:08.413Z,100
2018-03-14T09:28:48.888Z,100
2018-03-14T09:29:30.131Z,100
2018-03-14T09:30:10.644Z,100
2018-03-14T09:30:51.190Z,100
2018-03-14T09:31:31.632Z,105
2018-03-14T09:32:12.141Z,105
2018-03-14T09:32:52.644Z,105
2018-03-14T09:33:33.151Z,100
2018-03-14T09:34:13.663Z,100
2018-03-14T09:34:54.153Z,105
2018-03-14T09:35:34.656Z,105
2018-03-14T09:36:15.185Z,105
2018-03-14T09:36:55.670Z,105
2018-03-14T09:37:36.186Z,105
2018-03-14T09:38:16.638Z,105
2018-03-14T09:38:57.164Z,105
2018-03-14T09:39:37.685Z,105
2018-03-14T09:40:18.205Z,105
2018-03-14T09:40:58.723Z,100
2018-03-14T09:41:39.229Z,105
2018-03-14T09:42:19.776Z,105
2018-03-14T09:43:00.272Z,105
2018-03-14T09:43:40.755Z,105
2018-03-14T09:44:21.266Z,105
2018-03-14T09:45:01.753Z,110
2018-03-14T09:45:42.272Z,115
2018-03-14T09:46:22.771Z,115
2018-03-14T09:47:03.260Z,115
2018-03-14T09:47:43.821Z,115
2018-03-14T09:48:24.248Z,120
2018-03-14T09:49:04.761Z,125
2018-03-14T09:49:45.277Z,125
2018-03-14T09:50:25.799Z,130
2018-03-14T09:51:06.316Z,130